Portada
METAR-TAF:

METAR-TAF

Aeroports :

Wadi ad-Dawasir, Aràbia Saudita

latitud: 20-30N, longitud: 045-12E, altitud: 624 m

Observació

L'informe es va fer fa 34 minuts, a les 11:00 UTC
Vent 2 kt del Est
Temperatura 42°C
Humitat 6%
Pressió 1008 hPa
Visibilitat 10 km o més
sense núvols per sota de 1500 mi sense presència de cumulonimbus.

METAR: OEWD 291100Z 09002KT CAVOK 42/M02 Q1008

Hora: 14:34 (11:34 UTC)

Pronòstic

L'informe es va fer fa 12 hores i 34 minuts, a les 23:00 UTC
Pronòstic vàlid del 29 a les 00 UTC al 30 a les 06 UTC
Vent 10 kt del Est
Visibilitat: 7000 m
Probabilitat 40% :
Temporalment
l' 29 a les 06 UTC al 29 a les 14 UTC
Visibilitat: 3000 m
Pols estès
Evolucionant progressivament
l' 29 a les 18 UTC al 29 a les 20 UTC
Vent 6 kt del Sud/Sud-Est

TAF: OEWD 282300Z 2900/3006 10010KT 7000 NSC PROB40 TEMPO 2906/2914 3000 DU BECMG 2918/2920 16006KT

Observacions i pronòstics meteorològics de més de 4000 aeroports (METAR i TAF).

Les estacions disponibles són els punts grocs i vermells al mapa.

Posi el ratolí al punt desitjat per veure el nom de l'estació.

Feu clic per veure les observacions i els pronòstics meteorològics.

Per canviar el mapa: feu clic els botons verds amb una creu de color negre per apropar; al botó verd amb un guió per allunyar la imatge; o en les fletxes verdes per a mapes adjacents.


METAR-TAF: